Time;durP1;ratioP1;P1;durP2;ratioP2;P2;SDS_P1;SDS_P2;PMS_P1;PMS_P2;Temp;Humidity;BMP_temperature;BMP_pressure;BME280_temperature;BME280_humidity;BME280_pressure;Samples;Min_cycle;Max_cycle;Signal;HPM_P1;HPM_P2
2020/12/16 00:02:17;;;;;;;11.32;4.60;;;7.00;99.90;;;;;;10451894;28;20151;-53
2020/12/16 00:07:38;;;;;;;19.20;6.47;;;7.00;99.90;;;;;;10447342;28;20032;-53
2020/12/16 00:12:59;;;;;;;21.17;7.47;;;6.90;99.90;;;;;;10442918;28;20082;-53
2020/12/16 00:18:23;;;;;;;20.90;7.40;;;6.80;99.90;;;;;;10440908;28;20128;-52
2020/12/16 00:23:44;;;;;;;17.98;6.38;;;6.80;99.90;;;;;;10437863;28;20037;-52
2020/12/16 00:29:05;;;;;;;14.95;4.40;;;6.70;99.90;;;;;;10447486;28;20128;-53
2020/12/16 00:34:26;;;;;;;18.52;4.88;;;6.60;99.90;;;;;;10444996;28;20035;-53
2020/12/16 00:39:48;;;;;;;18.70;6.15;;;6.60;99.90;;;;;;10445449;28;20032;-53
2020/12/16 00:45:09;;;;;;;18.42;7.13;;;6.60;99.90;;;;;;10442189;28;20574;-53
2020/12/16 00:50:30;;;;;;;14.32;5.63;;;6.50;99.90;;;;;;10442940;28;20045;-53
2020/12/16 00:55:51;;;;;;;18.02;6.75;;;6.50;99.90;;;;;;10444880;28;20048;-53
2020/12/16 01:01:12;;;;;;;12.02;5.60;;;6.40;99.90;;;;;;10453806;28;20056;-52
2020/12/16 01:06:35;;;;;;;17.02;6.38;;;6.30;99.90;;;;;;10452021;28;20036;-52
2020/12/16 01:11:57;;;;;;;10.57;4.78;;;6.20;99.90;;;;;;10453259;28;20599;-53
2020/12/16 01:17:17;;;;;;;14.30;5.95;;;6.20;99.90;;;;;;10437653;28;20045;-52
2020/12/16 01:28:56;;;;;;;9.98;5.78;;;6.20;99.90;;;;;;10452595;28;20140;-52
2020/12/16 01:34:20;;;;;;;17.90;5.00;;;6.30;99.90;;;;;;10458206;28;20575;-52
2020/12/16 01:39:41;;;;;;;10.55;5.03;;;6.30;99.90;;;;;;10452402;28;20049;-53
2020/12/16 01:45:05;;;;;;;14.00;4.35;;;6.30;99.90;;;;;;10453039;28;20469;-52
2020/12/16 01:50:26;;;;;;;15.85;6.28;;;6.30;99.90;;;;;;10455398;28;20041;-54
2020/12/16 01:55:48;;;;;;;26.00;6.07;;;6.20;99.90;;;;;;10449257;28;20040;-53
2020/12/16 02:01:17;;;;;;;12.73;5.43;;;6.20;99.90;;;;;;10453196;28;20124;-53
2020/12/16 02:06:40;;;;;;;14.20;5.53;;;6.20;99.90;;;;;;10454192;28;20488;-52
2020/12/16 02:12:08;;;;;;;12.88;4.50;;;6.20;99.90;;;;;;10451926;28;20041;-53
2020/12/16 02:17:29;;;;;;;11.70;4.95;;;6.20;99.90;;;;;;10446833;28;20047;-53
2020/12/16 02:22:51;;;;;;;22.20;6.20;;;6.30;99.90;;;;;;10453600;28;20037;-53
2020/12/16 02:28:12;;;;;;;17.38;6.43;;;6.20;99.90;;;;;;10452367;28;20048;-53
2020/12/16 02:33:33;;;;;;;18.35;6.43;;;6.20;99.90;;;;;;10444730;28;20061;-53
2020/12/16 02:38:54;;;;;;;19.42;6.65;;;6.20;99.90;;;;;;10448374;28;20547;-53
2020/12/16 02:44:15;;;;;;;18.02;5.78;;;6.30;99.90;;;;;;10449535;28;20468;-53
2020/12/16 02:49:36;;;;;;;12.15;4.85;;;6.30;99.90;;;;;;10439552;28;20048;-53
2020/12/16 02:54:57;;;;;;;12.98;4.88;;;6.30;99.90;;;;;;10451410;28;20029;-53
2020/12/16 03:00:18;;;;;;;14.60;5.40;;;6.20;99.90;;;;;;10444416;28;20493;-53
2020/12/16 03:05:39;;;;;;;11.57;5.50;;;6.20;99.90;;;;;;10450976;28;20132;-52
2020/12/16 03:11:00;;;;;;;16.23;5.03;;;6.10;99.90;;;;;;10450067;28;20041;-53
2020/12/16 03:16:21;;;;;;;18.95;5.50;;;5.90;99.90;;;;;;10440874;28;20064;-53
2020/12/16 03:21:43;;;;;;;14.70;6.32;;;5.80;99.90;;;;;;10446273;28;20032;-53
2020/12/16 03:27:04;;;;;;;16.13;5.50;;;5.70;99.90;;;;;;10444745;28;20132;-53
2020/12/16 03:32:25;;;;;;;14.40;6.25;;;5.70;99.90;;;;;;10439631;28;20102;-53
2020/12/16 03:37:46;;;;;;;18.63;6.03;;;5.80;99.90;;;;;;10445394;28;20045;-53
2020/12/16 03:43:07;;;;;;;14.80;6.47;;;5.80;99.90;;;;;;10440947;28;20495;-53
2020/12/16 03:48:28;;;;;;;13.10;5.47;;;5.80;99.90;;;;;;10440142;28;20451;-52
2020/12/16 03:53:48;;;;;;;12.35;4.88;;;5.80;99.90;;;;;;10436802;28;20041;-53
2020/12/16 03:59:09;;;;;;;17.38;5.40;;;5.70;99.90;;;;;;10442030;28;20476;-52
2020/12/16 04:04:30;;;;;;;15.38;6.72;;;5.70;99.90;;;;;;10442617;28;20128;-53
2020/12/16 04:09:51;;;;;;;9.85;4.40;;;5.70;99.90;;;;;;10441479;28;20092;-53
2020/12/16 04:15:12;;;;;;;17.98;6.10;;;5.80;99.90;;;;;;10439049;28;20041;-53
2020/12/16 04:20:33;;;;;;;18.00;4.88;;;5.80;99.90;;;;;;10440406;28;20108;-53
2020/12/16 04:25:54;;;;;;;13.77;5.93;;;5.70;99.90;;;;;;10444558;28;20056;-53
2020/12/16 04:31:15;;;;;;;16.45;4.75;;;5.80;99.90;;;;;;10443988;28;20045;-53
2020/12/16 04:36:36;;;;;;;11.20;4.55;;;5.80;99.90;;;;;;10442841;28;20044;-52
2020/12/16 04:41:57;;;;;;;16.67;4.53;;;5.80;99.90;;;;;;10446315;28;20037;-53
2020/12/16 04:47:19;;;;;;;15.70;5.55;;;5.80;99.90;;;;;;10448333;28;20039;-53
2020/12/16 04:52:44;;;;;;;14.02;5.45;;;5.80;99.90;;;;;;10448182;28;20048;-53
2020/12/16 04:58:06;;;;;;;13.68;4.95;;;5.80;99.90;;;;;;10446571;28;20068;-52
2020/12/16 05:03:28;;;;;;;11.93;4.95;;;5.90;99.90;;;;;;10446090;28;20035;-53
2020/12/16 05:09:10;;;;;;;14.98;5.10;;;5.90;99.90;;;;;;10452554;28;20048;-52
2020/12/16 05:14:30;;;;;;;13.55;4.47;;;5.90;99.90;;;;;;10452236;28;20036;-53
2020/12/16 05:19:51;;;;;;;15.57;4.28;;;5.80;99.90;;;;;;10448896;28;20120;-52
2020/12/16 05:25:12;;;;;;;12.93;5.05;;;5.90;99.90;;;;;;10446277;28;20103;-52
2020/12/16 05:30:35;;;;;;;13.95;5.78;;;5.80;99.90;;;;;;10447656;28;20045;-52
2020/12/16 05:35:56;;;;;;;11.00;3.95;;;5.70;99.90;;;;;;10448724;28;20044;-52
2020/12/16 05:41:31;;;;;;;10.23;5.32;;;5.70;99.90;;;;;;10445247;28;20037;-52
2020/12/16 05:46:52;;;;;;;8.40;4.13;;;5.60;99.90;;;;;;10445980;28;20138;-52
2020/12/16 05:52:13;;;;;;;14.27;5.18;;;5.70;99.90;;;;;;10448079;28;20064;-53
2020/12/16 05:57:34;;;;;;;11.48;4.22;;;5.70;99.90;;;;;;10432130;28;20087;-52
2020/12/16 06:03:00;;;;;;;17.35;5.65;;;5.70;99.90;;;;;;10442067;28;20492;-52
2020/12/16 06:08:23;;;;;;;10.07;4.53;;;5.70;99.90;;;;;;10448015;28;20071;-52
2020/12/16 06:13:47;;;;;;;13.57;3.33;;;5.60;99.90;;;;;;10445812;28;20591;-52
2020/12/16 06:19:13;;;;;;;12.35;4.72;;;5.70;99.90;;;;;;10441837;28;20037;-52
2020/12/16 06:24:44;;;;;;;13.50;5.95;;;5.70;99.90;;;;;;10444356;28;20416;-53
2020/12/16 06:30:07;;;;;;;12.20;4.38;;;5.80;99.90;;;;;;10445594;28;20508;-52
2020/12/16 06:35:29;;;;;;;8.98;4.00;;;5.70;99.90;;;;;;10449594;28;20394;-53
2020/12/16 06:40:52;;;;;;;17.38;3.97;;;5.80;99.90;;;;;;10436829;28;20048;-52
2020/12/16 06:46:32;;;;;;;15.50;4.68;;;5.80;99.90;;;;;;10434716;28;20090;-52
2020/12/16 06:52:03;;;;;;;11.35;4.05;;;5.80;99.90;;;;;;10434038;28;20045;-52
2020/12/16 06:57:25;;;;;;;10.93;4.47;;;5.80;99.90;;;;;;10434459;28;20036;-52
2020/12/16 07:02:47;;;;;;;10.02;5.38;;;5.80;99.90;;;;;;10442127;28;20040;-52
2020/12/16 07:08:08;;;;;;;7.13;3.47;;;5.80;99.90;;;;;;10438280;28;20025;-52
2020/12/16 07:13:34;;;;;;;12.07;4.72;;;5.90;99.90;;;;;;10440606;28;20060;-52
2020/12/16 07:18:55;;;;;;;12.43;4.70;;;5.90;99.90;;;;;;10441117;28;20041;-52
2020/12/16 07:24:17;;;;;;;11.07;4.97;;;5.90;99.90;;;;;;10441174;28;20424;-54
2020/12/16 07:29:38;;;;;;;13.90;5.03;;;5.80;99.90;;;;;;10445640;28;20044;-54
2020/12/16 07:35:00;;;;;;;11.30;3.70;;;5.80;99.90;;;;;;10439003;28;20041;-52
2020/12/16 07:40:22;;;;;;;10.05;4.05;;;5.70;99.90;;;;;;10441918;28;20040;-53
2020/12/16 07:45:43;;;;;;;14.30;4.32;;;5.60;99.90;;;;;;10446566;28;20170;-53
2020/12/16 07:51:06;;;;;;;9.65;4.07;;;5.60;99.90;;;;;;10426190;28;20043;-52
2020/12/16 07:56:27;;;;;;;13.00;4.55;;;5.60;99.90;;;;;;10441210;28;20044;-52
2020/12/16 08:01:49;;;;;;;8.48;3.50;;;5.50;99.90;;;;;;10446753;28;20041;-52
2020/12/16 08:07:14;;;;;;;8.02;2.60;;;5.50;99.90;;;;;;10433057;28;20032;-52
2020/12/16 08:12:41;;;;;;;9.40;3.85;;;5.50;99.90;;;;;;10448080;28;20040;-52
2020/12/16 08:18:03;;;;;;;13.55;4.32;;;5.50;99.90;;;;;;10442621;28;20044;-52
2020/12/16 08:23:24;;;;;;;8.98;4.18;;;5.60;99.90;;;;;;10446147;28;20203;-52
2020/12/16 08:28:45;;;;;;;17.83;6.28;;;5.50;99.90;;;;;;10452846;28;20045;-52
2020/12/16 08:34:11;;;;;;;9.95;4.28;;;5.50;99.90;;;;;;10455805;28;20403;-52
2020/12/16 08:39:34;;;;;;;13.23;4.53;;;5.50;99.90;;;;;;10460491;28;20040;-52
2020/12/16 08:45:09;;;;;;;13.13;5.50;;;5.50;99.90;;;;;;10450080;28;20044;-52
2020/12/16 08:50:30;;;;;;;14.35;5.47;;;5.50;99.90;;;;;;10450693;28;20068;-52
2020/12/16 08:55:51;;;;;;;9.95;3.72;;;5.50;99.90;;;;;;10448413;28;20125;-52
2020/12/16 09:01:12;;;;;;;8.60;4.18;;;5.60;99.90;;;;;;10448871;28;20033;-52
2020/12/16 09:06:33;;;;;;;10.23;4.55;;;5.70;99.90;;;;;;10449069;28;20040;-52
2020/12/16 09:11:54;;;;;;;12.07;3.78;;;5.90;99.90;;;;;;10447483;28;20049;-52
2020/12/16 09:17:16;;;;;;;8.77;4.68;;;5.90;99.90;;;;;;10456202;28;20499;-52
2020/12/16 09:22:37;;;;;;;13.30;4.93;;;6.10;99.90;;;;;;10444576;28;20417;-52
2020/12/16 09:28:00;;;;;;;11.25;5.07;;;6.30;99.90;;;;;;10449461;28;20183;-52
2020/12/16 09:33:21;;;;;;;7.22;2.88;;;6.60;99.90;;;;;;10450207;28;20041;-52
2020/12/16 09:38:42;;;;;;;11.23;4.18;;;6.90;99.90;;;;;;10449115;28;20060;-54
2020/12/16 09:44:03;;;;;;;10.18;4.63;;;7.10;99.90;;;;;;10440329;28;20035;-52
2020/12/16 09:49:24;;;;;;;6.75;3.17;;;7.30;99.90;;;;;;10438098;28;22416;-52
2020/12/16 09:54:45;;;;;;;8.23;3.13;;;7.50;99.90;;;;;;10444607;28;20332;-52
2020/12/16 10:00:07;;;;;;;7.63;2.83;;;7.70;99.90;;;;;;10442456;28;20484;-54
2020/12/16 10:05:29;;;;;;;12.93;3.20;;;7.70;99.90;;;;;;10448109;28;20032;-54
2020/12/16 10:10:50;;;;;;;5.97;2.63;;;7.80;99.90;;;;;;10443867;28;20162;-54
2020/12/16 10:16:12;;;;;;;5.93;3.40;;;7.90;99.90;;;;;;10442933;28;20084;-54
2020/12/16 10:21:32;;;;;;;6.50;2.30;;;8.00;99.90;;;;;;10435790;28;20036;-52
2020/12/16 10:26:53;;;;;;;8.30;3.13;;;8.30;99.90;;;;;;10449457;28;20167;-52
2020/12/16 10:32:15;;;;;;;5.68;2.40;;;8.70;99.90;;;;;;10438415;28;20052;-52
2020/12/16 10:37:40;;;;;;;4.25;1.85;;;8.70;99.90;;;;;;10443080;28;20032;-52
2020/12/16 10:43:02;;;;;;;6.95;2.25;;;8.90;99.90;;;;;;10448031;28;20675;-52
2020/12/16 10:48:23;;;;;;;4.25;2.05;;;9.30;99.90;;;;;;10445631;28;20105;-52
2020/12/16 10:53:44;;;;;;;9.45;3.00;;;9.90;99.90;;;;;;10445658;28;20281;-52
2020/12/16 10:59:05;;;;;;;3.90;2.03;;;10.20;99.90;;;;;;10449399;28;20988;-52
2020/12/16 11:04:31;;;;;;;2.85;1.45;;;10.60;99.90;;;;;;10443341;28;20135;-52
2020/12/16 11:09:51;;;;;;;4.88;1.88;;;10.90;99.90;;;;;;10434580;28;20088;-52
2020/12/16 11:15:15;;;;;;;4.43;1.88;;;11.60;99.90;;;;;;10430150;28;20051;-52
2020/12/16 11:20:36;;;;;;;4.65;2.20;;;11.90;99.90;;;;;;10438271;28;20493;-54
2020/12/16 11:25:57;;;;;;;5.88;1.83;;;12.20;99.90;;;;;;10442970;28;20052;-54
2020/12/16 11:31:18;;;;;;;6.72;1.85;;;12.70;99.90;;;;;;10441448;28;20048;-52
2020/12/16 11:36:40;;;;;;;6.70;2.45;;;12.30;99.90;;;;;;10442506;28;20056;-52
2020/12/16 11:42:03;;;;;;;5.35;1.92;;;11.80;99.90;;;;;;10390165;28;20045;-52
2020/12/16 11:47:24;;;;;;;6.20;1.73;;;11.50;99.90;;;;;;10442184;28;20432;-52
2020/12/16 11:52:45;;;;;;;2.92;1.48;;;12.90;99.90;;;;;;10446546;28;20928;-52
2020/12/16 11:58:06;;;;;;;2.53;0.90;;;13.20;99.90;;;;;;10456964;28;20061;-52
2020/12/16 12:03:27;;;;;;;3.35;1.67;;;12.40;99.90;;;;;;10442614;28;20029;-52
2020/12/16 12:08:48;;;;;;;6.82;2.08;;;12.10;99.90;;;;;;10445895;28;20048;-52
2020/12/16 12:14:09;;;;;;;4.13;2.15;;;11.40;99.90;;;;;;10448339;28;20056;-52
2020/12/16 12:19:31;;;;;;;3.58;1.70;;;11.50;99.90;;;;;;10445774;28;20045;-52
2020/12/16 12:24:52;;;;;;;3.25;2.25;;;11.60;99.90;;;;;;10443076;28;20033;-52
2020/12/16 12:30:14;;;;;;;2.63;1.45;;;12.50;99.90;;;;;;10443620;28;20086;-52
2020/12/16 12:35:35;;;;;;;3.58;1.60;;;12.10;99.90;;;;;;10447615;28;20036;-52
2020/12/16 12:40:56;;;;;;;3.00;1.50;;;12.20;99.90;;;;;;10429507;28;20499;-52
2020/12/16 12:46:17;;;;;;;5.70;1.75;;;12.00;99.90;;;;;;10443375;28;20033;-52
2020/12/16 12:51:38;;;;;;;3.47;1.58;;;11.40;99.90;;;;;;10445923;28;20067;-52
2020/12/16 12:56:59;;;;;;;4.68;2.10;;;11.90;99.90;;;;;;10447160;28;20503;-52
2020/12/16 13:02:20;;;;;;;4.85;1.77;;;12.20;99.90;;;;;;10444584;28;20037;-52
2020/12/16 13:07:41;;;;;;;5.55;1.38;;;11.90;99.90;;;;;;10449293;28;20033;-52
2020/12/16 13:13:02;;;;;;;5.50;2.03;;;11.30;99.90;;;;;;10450866;28;20071;-52
2020/12/16 13:18:23;;;;;;;4.63;2.05;;;10.90;99.90;;;;;;10460448;28;20045;-52
2020/12/16 13:23:44;;;;;;;4.63;1.88;;;10.80;99.90;;;;;;10467822;28;20723;-52
2020/12/16 13:29:05;;;;;;;6.72;2.08;;;10.60;99.90;;;;;;10467506;28;20775;-52
2020/12/16 13:34:26;;;;;;;6.13;2.83;;;10.40;99.90;;;;;;10454289;28;20373;-52
2020/12/16 13:39:47;;;;;;;5.28;1.80;;;10.30;99.90;;;;;;10447619;28;20389;-52
2020/12/16 13:45:09;;;;;;;5.57;1.38;;;10.20;99.90;;;;;;10449725;28;20071;-51
2020/12/16 13:50:30;;;;;;;3.92;1.75;;;10.10;99.90;;;;;;10450757;28;20450;-52
2020/12/16 13:55:51;;;;;;;5.05;1.70;;;10.10;99.90;;;;;;10481139;28;20456;-52
2020/12/16 14:01:12;;;;;;;4.55;1.92;;;10.10;99.90;;;;;;10457916;28;20040;-52
2020/12/16 14:06:32;;;;;;;3.40;1.42;;;10.10;99.90;;;;;;10450436;28;20043;-52
2020/12/16 14:11:54;;;;;;;6.85;2.42;;;10.10;99.90;;;;;;10448453;28;20508;-52
2020/12/16 14:17:15;;;;;;;5.97;2.20;;;10.10;99.90;;;;;;10457267;28;20059;-52
2020/12/16 14:22:36;;;;;;;5.93;2.55;;;10.00;99.90;;;;;;10449529;28;20122;-51
2020/12/16 14:27:57;;;;;;;4.22;2.05;;;9.90;99.90;;;;;;10449199;28;20133;-52
2020/12/16 14:33:18;;;;;;;7.70;2.28;;;9.90;99.90;;;;;;10454141;28;20051;-52
2020/12/16 14:38:41;;;;;;;5.90;2.13;;;9.90;99.90;;;;;;10450103;28;20497;-51
2020/12/16 14:44:03;;;;;;;7.60;2.22;;;9.80;99.90;;;;;;10457483;28;20485;-51
2020/12/16 14:49:25;;;;;;;9.07;2.25;;;9.70;99.90;;;;;;10445211;28;20836;-52
2020/12/16 14:54:46;;;;;;;8.93;3.42;;;9.70;99.90;;;;;;10450867;28;20048;-52
2020/12/16 15:00:08;;;;;;;4.68;2.75;;;9.60;99.90;;;;;;10441718;28;20112;-51
2020/12/16 15:05:29;;;;;;;5.10;2.22;;;9.50;99.90;;;;;;10462432;28;20135;-51
2020/12/16 15:10:50;;;;;;;6.28;2.08;;;9.30;99.90;;;;;;10452560;28;20111;-52
2020/12/16 15:16:11;;;;;;;7.35;2.78;;;9.40;99.90;;;;;;10445260;28;20040;-51
2020/12/16 15:21:32;;;;;;;5.88;2.25;;;9.20;99.90;;;;;;10440671;28;20040;-51
2020/12/16 15:26:53;;;;;;;8.38;2.95;;;9.30;99.90;;;;;;10445082;28;20140;-51
2020/12/16 15:32:16;;;;;;;9.75;2.85;;;9.20;99.90;;;;;;10440743;28;20069;-51
2020/12/16 15:37:37;;;;;;;4.72;2.50;;;9.20;99.90;;;;;;10447563;28;20108;-52
2020/12/16 15:42:59;;;;;;;8.23;1.92;;;9.10;99.90;;;;;;10443397;28;20044;-52
2020/12/16 15:48:20;;;;;;;6.13;2.30;;;9.10;99.90;;;;;;10443585;28;20055;-52
2020/12/16 15:53:42;;;;;;;5.63;2.35;;;9.00;99.90;;;;;;10453731;28;20045;-52
2020/12/16 15:59:03;;;;;;;6.35;2.08;;;8.90;99.90;;;;;;10448860;28;20127;-52
2020/12/16 16:04:24;;;;;;;23.23;3.03;;;8.80;99.90;;;;;;10444061;28;20047;-52
2020/12/16 16:09:45;;;;;;;6.55;2.35;;;8.90;99.90;;;;;;10444947;28;20394;-52
2020/12/16 16:15:07;;;;;;;7.13;2.95;;;8.80;99.90;;;;;;10447980;28;20041;-52
2020/12/16 16:20:28;;;;;;;6.50;2.72;;;8.80;99.90;;;;;;10454516;28;20090;-52
2020/12/16 16:25:50;;;;;;;6.00;2.40;;;8.70;99.90;;;;;;10452276;28;20098;-52
2020/12/16 16:31:11;;;;;;;6.80;2.55;;;8.70;99.90;;;;;;10454760;28;20048;-52
2020/12/16 16:36:32;;;;;;;8.55;2.58;;;8.60;99.90;;;;;;10449599;28;20040;-51
2020/12/16 16:41:53;;;;;;;11.30;4.30;;;8.60;99.90;;;;;;10453452;28;20526;-52
2020/12/16 16:47:14;;;;;;;8.68;3.38;;;8.50;99.90;;;;;;10443140;28;20041;-52
2020/12/16 16:52:36;;;;;;;7.20;3.47;;;8.60;99.90;;;;;;10446784;28;20448;-52
2020/12/16 16:57:57;;;;;;;7.28;2.17;;;8.50;99.90;;;;;;10446297;28;20037;-52
2020/12/16 17:03:18;;;;;;;7.25;2.92;;;8.50;99.90;;;;;;10448145;28;20401;-52
2020/12/16 17:08:39;;;;;;;5.93;3.13;;;8.60;99.90;;;;;;10448614;28;20040;-52
2020/12/16 17:13:59;;;;;;;6.18;2.25;;;8.50;99.90;;;;;;10448257;28;20053;-51
2020/12/16 17:19:21;;;;;;;9.43;4.18;;;8.50;99.90;;;;;;10413593;28;20047;-52
2020/12/16 17:24:42;;;;;;;10.18;3.28;;;8.50;99.90;;;;;;10445878;28;20083;-52
2020/12/16 17:30:03;;;;;;;7.07;2.72;;;8.50;99.90;;;;;;10431161;28;20460;-52
2020/12/16 17:35:24;;;;;;;7.22;2.28;;;8.50;99.90;;;;;;10442208;28;20068;-52
2020/12/16 17:40:45;;;;;;;9.15;3.63;;;8.50;99.90;;;;;;10435117;28;20048;-51
2020/12/16 17:46:07;;;;;;;7.55;2.53;;;8.60;99.90;;;;;;10439452;28;20038;-52
2020/12/16 17:51:28;;;;;;;4.63;2.25;;;8.70;99.90;;;;;;10439927;28;20040;-52
2020/12/16 17:56:49;;;;;;;7.43;2.40;;;8.80;99.90;;;;;;10437260;28;20127;-52
2020/12/16 18:02:11;;;;;;;9.60;3.00;;;8.90;99.90;;;;;;10431810;28;20373;-52
2020/12/16 18:07:32;;;;;;;8.15;2.30;;;8.90;99.90;;;;;;10437485;28;20480;-52
2020/12/16 18:12:54;;;;;;;5.45;2.15;;;9.00;99.90;;;;;;10436788;28;20110;-52
2020/12/16 18:18:16;;;;;;;7.65;2.55;;;8.90;99.90;;;;;;10437361;28;20143;-52
2020/12/16 18:23:37;;;;;;;7.05;3.55;;;9.00;99.90;;;;;;10433952;28;20106;-52
2020/12/16 18:28:58;;;;;;;6.63;2.80;;;9.10;99.90;;;;;;10439462;28;20045;-52
2020/12/16 18:34:19;;;;;;;7.70;3.05;;;9.00;99.90;;;;;;10435407;28;21863;-52
2020/12/16 18:39:40;;;;;;;7.63;3.15;;;9.00;99.90;;;;;;10436829;28;20037;-52
2020/12/16 18:45:02;;;;;;;7.35;2.90;;;9.10;99.90;;;;;;10440939;28;20144;-52
2020/12/16 18:50:23;;;;;;;4.30;2.38;;;9.00;99.90;;;;;;10440258;28;20326;-52
2020/12/16 18:55:45;;;;;;;4.93;2.30;;;9.00;99.90;;;;;;10424489;28;20254;-52
2020/12/16 19:01:06;;;;;;;6.65;2.08;;;9.10;99.90;;;;;;10432482;28;20152;-52
2020/12/16 19:06:28;;;;;;;5.68;2.42;;;9.00;99.90;;;;;;10427882;28;20059;-52
2020/12/16 19:11:49;;;;;;;8.13;2.17;;;9.00;99.90;;;;;;10434373;28;20041;-52
2020/12/16 19:17:10;;;;;;;9.45;2.08;;;9.00;99.90;;;;;;10429444;28;20044;-52
2020/12/16 19:22:31;;;;;;;6.50;2.33;;;9.00;99.90;;;;;;10428903;28;20040;-52
2020/12/16 19:27:53;;;;;;;5.00;2.25;;;9.10;99.90;;;;;;10429881;28;20151;-52
2020/12/16 19:33:14;;;;;;;5.28;1.63;;;9.10;99.90;;;;;;10424761;28;20508;-52
2020/12/16 19:38:35;;;;;;;3.55;1.20;;;9.20;99.90;;;;;;10423621;28;20064;-52
2020/12/16 19:43:56;;;;;;;6.95;2.40;;;9.20;99.90;;;;;;10430675;28;20098;-52
2020/12/16 19:49:19;;;;;;;4.53;1.98;;;9.30;99.90;;;;;;10416114;28;20041;-51
2020/12/16 19:54:40;;;;;;;5.45;1.80;;;9.30;99.90;;;;;;10423625;28;20052;-52
2020/12/16 20:00:01;;;;;;;12.80;2.28;;;9.20;99.90;;;;;;10409071;28;20040;-52
2020/12/16 20:05:24;;;;;;;4.18;1.95;;;9.20;99.90;;;;;;10426579;28;20037;-52
2020/12/16 20:10:45;;;;;;;5.32;2.45;;;9.20;99.90;;;;;;10428994;28;20183;-52
2020/12/16 20:16:06;;;;;;;5.55;1.92;;;9.20;99.90;;;;;;10425248;28;20036;-52
2020/12/16 20:21:27;;;;;;;6.55;1.88;;;9.20;99.90;;;;;;10415870;28;20065;-52
2020/12/16 20:26:48;;;;;;;4.90;1.52;;;9.40;99.90;;;;;;10431150;28;20064;-52
2020/12/16 20:32:09;;;;;;;5.03;1.35;;;9.40;99.90;;;;;;10429887;28;20067;-52
2020/12/16 20:37:35;;;;;;;5.25;1.75;;;9.60;99.90;;;;;;10426537;28;20311;-52
2020/12/16 20:42:56;;;;;;;5.60;1.98;;;9.60;99.90;;;;;;10427718;28;20060;-52
2020/12/16 20:48:17;;;;;;;3.75;1.65;;;9.60;99.90;;;;;;10422623;28;20045;-51
2020/12/16 20:53:39;;;;;;;6.97;2.30;;;9.70;99.90;;;;;;10433173;28;20041;-51
2020/12/16 20:59:00;;;;;;;2.63;1.23;;;9.80;99.90;;;;;;10425891;28;20463;-52
2020/12/16 21:04:21;;;;;;;4.78;1.70;;;9.90;99.90;;;;;;10434052;28;20037;-52
2020/12/16 21:09:42;;;;;;;5.07;2.08;;;9.90;99.90;;;;;;10435725;28;20063;-52
2020/12/16 21:15:03;;;;;;;4.10;1.52;;;9.90;99.90;;;;;;10428339;28;20051;-52
2020/12/16 21:20:24;;;;;;;4.00;1.77;;;10.00;99.90;;;;;;10432224;28;20021;-52
2020/12/16 21:25:45;;;;;;;5.68;1.92;;;9.90;99.90;;;;;;10438377;28;20530;-52
2020/12/16 21:31:06;;;;;;;3.78;1.52;;;9.90;99.90;;;;;;10435816;28;20145;-52
2020/12/16 21:36:31;;;;;;;3.92;1.88;;;9.90;99.90;;;;;;10435597;28;20488;-52
2020/12/16 21:41:53;;;;;;;5.72;1.67;;;10.00;99.90;;;;;;10434323;28;20658;-52
2020/12/16 21:47:14;;;;;;;5.65;1.77;;;9.90;99.90;;;;;;10434432;28;20724;-52
2020/12/16 21:52:39;;;;;;;3.22;1.27;;;9.90;99.90;;;;;;10439540;28;20048;-53
2020/12/16 21:58:00;;;;;;;4.80;1.35;;;9.90;99.90;;;;;;10457767;28;20094;-52
2020/12/16 22:03:21;;;;;;;3.80;1.77;;;9.80;99.90;;;;;;10448857;28;20037;-52
2020/12/16 22:08:42;;;;;;;5.65;1.42;;;9.70;99.90;;;;;;10445650;28;20577;-53
2020/12/16 22:14:03;;;;;;;7.32;2.50;;;9.70;99.90;;;;;;10447844;28;20075;-52
2020/12/16 22:19:24;;;;;;;5.85;1.20;;;9.70;99.90;;;;;;10446928;28;20090;-52
2020/12/16 22:24:45;;;;;;;5.53;2.05;;;9.70;99.90;;;;;;10445449;28;20128;-52
2020/12/16 22:30:06;;;;;;;5.43;1.33;;;9.70;99.90;;;;;;10441017;28;20080;-52
2020/12/16 22:35:27;;;;;;;4.28;1.65;;;9.70;99.90;;;;;;10436439;28;20528;-52
2020/12/16 22:40:48;;;;;;;6.28;1.92;;;9.80;99.90;;;;;;10442555;28;20500;-53
2020/12/16 22:46:11;;;;;;;4.03;1.55;;;9.80;99.90;;;;;;10443434;28;20096;-52
2020/12/16 22:51:36;;;;;;;4.18;1.98;;;9.80;99.90;;;;;;10446603;28;20044;-52
2020/12/16 22:56:57;;;;;;;4.03;1.50;;;9.80;99.90;;;;;;10445912;28;20068;-53
2020/12/16 23:02:19;;;;;;;2.08;1.15;;;9.90;99.90;;;;;;10444792;28;20048;-53
2020/12/16 23:07:40;;;;;;;2.83;0.98;;;9.90;99.90;;;;;;10439070;28;20115;-53
2020/12/16 23:13:01;;;;;;;4.78;1.90;;;9.80;99.90;;;;;;10437848;28;20055;-52
2020/12/16 23:18:22;;;;;;;3.35;1.08;;;9.90;99.90;;;;;;10439500;28;20043;-53
2020/12/16 23:23:43;;;;;;;4.22;1.30;;;9.90;99.90;;;;;;10434126;28;20435;-52
2020/12/16 23:29:04;;;;;;;2.90;1.33;;;9.80;99.90;;;;;;10436005;28;20049;-52
2020/12/16 23:34:25;;;;;;;2.78;1.40;;;9.80;99.90;;;;;;10429202;28;20040;-52
2020/12/16 23:39:46;;;;;;;5.18;2.28;;;9.80;99.90;;;;;;10432452;28;20047;-52
2020/12/16 23:45:08;;;;;;;3.85;1.40;;;9.70;99.90;;;;;;10434474;28;20357;-52
2020/12/16 23:50:31;;;;;;;3.40;1.83;;;9.70;99.90;;;;;;10433441;28;20140;-53
2020/12/16 23:55:52;;;;;;;3.00;1.52;;;9.70;99.90;;;;;;10435862;28;20039;-52
